createdAt,value
2018-05-27T00:01:18.494Z,66.10
2018-05-27T00:03:45.977Z,66.10
2018-05-27T00:06:13.473Z,65.80
2018-05-27T00:08:40.957Z,66.00
2018-05-27T00:11:08.483Z,66.10
2018-05-27T00:13:36.734Z,66.30
2018-05-27T00:16:04.234Z,66.20
2018-05-27T00:18:31.705Z,66.10
2018-05-27T00:20:59.223Z,66.00
2018-05-27T00:23:27.454Z,66.70
2018-05-27T00:25:54.963Z,66.70
2018-05-27T00:28:23.225Z,66.90
2018-05-27T00:30:52.218Z,66.80
2018-05-27T00:33:21.220Z,66.90
2018-05-27T00:35:49.490Z,66.80
2018-05-27T00:38:17.745Z,66.60
2018-05-27T00:40:45.223Z,66.60
2018-05-27T00:43:12.718Z,66.60
2018-05-27T00:45:40.195Z,67.10
2018-05-27T00:48:07.702Z,67.20
2018-05-27T00:50:35.201Z,66.80
2018-05-27T00:53:02.701Z,66.80
2018-05-27T00:55:30.193Z,66.90
2018-05-27T00:57:58.438Z,67.30
2018-05-27T01:00:25.959Z,67.30
2018-05-27T01:02:53.442Z,67.40
2018-05-27T01:05:20.932Z,67.40
2018-05-27T01:07:49.246Z,67.40
2018-05-27T01:10:16.734Z,67.40
2018-05-27T01:12:44.201Z,67.40
2018-05-27T01:15:11.713Z,67.50
2018-05-27T01:17:39.193Z,67.20
2018-05-27T01:20:06.690Z,67.10
2018-05-27T01:22:34.198Z,67.00
2018-05-27T01:25:01.695Z,67.30
2018-05-27T01:27:29.173Z,67.80
2018-05-27T01:29:56.699Z,67.60
2018-05-27T01:32:24.162Z,67.60
2018-05-27T01:34:51.642Z,67.30
2018-05-27T01:37:19.165Z,67.20
2018-05-27T01:39:46.642Z,67.40
2018-05-27T01:42:14.149Z,67.40
2018-05-27T01:44:42.418Z,67.60
2018-05-27T01:47:10.693Z,67.60
2018-05-27T01:49:38.937Z,67.80
2018-05-27T01:52:07.209Z,67.80
2018-05-27T01:54:34.705Z,67.80
2018-05-27T01:57:02.970Z,67.40
2018-05-27T01:59:30.434Z,67.30
2018-05-27T02:01:58.706Z,67.10
2018-05-27T02:04:26.173Z,67.10
2018-05-27T02:06:54.433Z,67.50
2018-05-27T02:09:21.917Z,67.40
2018-05-27T02:11:50.202Z,67.80
2018-05-27T02:14:18.428Z,67.80
2018-05-27T02:16:45.933Z,67.80
2018-05-27T02:19:14.176Z,67.80
2018-05-27T02:21:41.630Z,67.80
2018-05-27T02:24:09.133Z,67.90
2018-05-27T02:26:36.631Z,68.10
2018-05-27T02:29:04.138Z,68.00
2018-05-27T02:31:32.379Z,67.80
2018-05-27T02:33:59.887Z,67.80
2018-05-27T02:36:28.112Z,68.00
2018-05-27T02:38:55.636Z,67.90
2018-05-27T02:41:23.104Z,68.10
2018-05-27T02:43:50.605Z,68.00
2018-05-27T02:46:18.095Z,68.10
2018-05-27T02:48:46.349Z,67.50
2018-05-27T02:51:14.590Z,68.00
2018-05-27T02:53:42.102Z,68.00
2018-05-27T02:56:10.342Z,67.90
2018-05-27T02:58:37.809Z,67.90
2018-05-27T03:01:05.331Z,67.60
2018-05-27T03:03:32.823Z,68.00
2018-05-27T03:06:00.358Z,67.90
2018-05-27T03:08:27.836Z,68.00
2018-05-27T03:10:55.332Z,67.80
2018-05-27T03:13:22.825Z,68.10
2018-05-27T03:15:50.322Z,67.90
2018-05-27T03:18:17.793Z,67.90
2018-05-27T03:20:46.053Z,67.60
2018-05-27T03:23:13.530Z,67.50
2018-05-27T03:25:41.819Z,67.60
2018-05-27T03:28:10.054Z,67.90
2018-05-27T03:30:37.561Z,67.90
2018-05-27T03:33:05.073Z,67.90
2018-05-27T03:35:32.553Z,67.80
2018-05-27T03:38:00.065Z,67.90
2018-05-27T03:40:27.527Z,68.10
2018-05-27T03:42:55.029Z,68.00
2018-05-27T03:45:22.514Z,68.00
2018-05-27T03:47:50.768Z,67.90
2018-05-27T03:50:19.034Z,68.00
2018-05-27T03:52:47.319Z,68.30
2018-05-27T03:55:14.789Z,68.30
2018-05-27T03:57:43.049Z,68.30
2018-05-27T04:00:10.531Z,68.30
2018-05-27T04:02:38.809Z,67.80
2018-05-27T04:08:24.657Z,67.30
2018-05-27T04:10:52.125Z,67.50
2018-05-27T04:13:19.629Z,68.10
2018-05-27T04:15:47.869Z,68.60
2018-05-27T04:18:15.385Z,68.50
2018-05-27T04:20:43.370Z,68.80
2018-05-27T04:23:10.869Z,68.90
2018-05-27T04:25:38.397Z,68.90
2018-05-27T04:28:05.865Z,69.00
2018-05-27T04:30:33.362Z,68.90
2018-05-27T04:33:01.647Z,69.00
2018-05-27T04:35:29.917Z,69.00
2018-05-27T04:37:58.165Z,68.70
2018-05-27T04:40:25.641Z,68.70
2018-05-27T04:42:53.891Z,69.30
2018-05-27T04:45:21.401Z,69.30
2018-05-27T04:47:49.633Z,68.80
2018-05-27T04:50:17.101Z,68.70
2018-05-27T04:52:44.631Z,68.90
2018-05-27T04:55:12.097Z,69.00
2018-05-27T04:57:39.598Z,68.70
2018-05-27T05:00:07.836Z,68.50
2018-05-27T05:02:35.325Z,68.50
2018-05-27T05:05:02.793Z,68.70
2018-05-27T05:07:31.058Z,68.00
2018-05-27T05:09:58.555Z,68.00
2018-05-27T05:12:26.062Z,68.30
2018-05-27T05:14:53.552Z,68.60
2018-05-27T05:17:21.827Z,67.80
2018-05-27T05:19:50.097Z,67.70
2018-05-27T05:22:17.641Z,67.70
2018-05-27T05:24:45.107Z,67.50
2018-05-27T05:27:12.569Z,68.00
2018-05-27T05:29:40.866Z,67.70
2018-05-27T05:32:09.103Z,66.20
2018-05-27T05:34:36.615Z,66.10
2018-05-27T05:37:04.105Z,66.00
2018-05-27T05:39:31.613Z,65.10
2018-05-27T05:41:59.856Z,65.60
2018-05-27T05:44:27.356Z,65.50
2018-05-27T05:46:55.581Z,64.70
2018-05-27T05:49:23.126Z,64.70
2018-05-27T05:51:50.584Z,64.60
2018-05-27T05:54:18.074Z,65.40
2018-05-27T05:56:45.569Z,63.40
2018-05-27T05:59:13.071Z,63.60
2018-05-27T06:01:40.549Z,63.70
2018-05-27T06:04:08.793Z,63.40
2018-05-27T06:06:36.308Z,63.40
2018-05-27T06:09:04.589Z,63.10
2018-05-27T06:11:32.857Z,62.60
2018-05-27T06:14:00.333Z,62.50
2018-05-27T06:16:28.606Z,63.40
2018-05-27T06:18:56.833Z,63.40
2018-05-27T06:21:24.337Z,63.40
2018-05-27T06:23:52.577Z,64.10
2018-05-27T06:26:20.100Z,64.10
2018-05-27T06:28:47.590Z,63.90
2018-05-27T06:31:15.077Z,63.20
2018-05-27T06:33:43.313Z,63.00
2018-05-27T06:36:10.817Z,62.90
2018-05-27T06:38:39.102Z,63.10
2018-05-27T06:41:07.310Z,62.90
2018-05-27T06:43:34.797Z,62.90
2018-05-27T06:46:02.280Z,63.00
2018-05-27T06:48:29.789Z,64.20
2018-05-27T06:50:57.272Z,62.50
2018-05-27T06:53:24.776Z,62.70
2018-05-27T06:55:53.038Z,62.30
2018-05-27T06:58:21.314Z,61.80
2018-05-27T07:00:48.822Z,61.80
2018-05-27T07:03:16.326Z,61.50
2018-05-27T07:05:43.845Z,61.30
2018-05-27T07:08:11.338Z,61.10
2018-05-27T07:10:38.813Z,60.90
2018-05-27T07:13:07.059Z,60.80
2018-05-27T07:15:34.605Z,60.80
2018-05-27T07:18:02.086Z,61.50
2018-05-27T07:20:29.570Z,62.30
2018-05-27T07:22:57.842Z,62.00
2018-05-27T07:25:26.077Z,61.00
2018-05-27T07:27:53.554Z,60.90
2018-05-27T07:30:21.057Z,60.70
2018-05-27T07:32:48.546Z,60.80
2018-05-27T07:35:16.027Z,61.10
2018-05-27T07:37:43.493Z,59.20
2018-05-27T07:40:11.000Z,60.10
2018-05-27T07:42:38.505Z,60.40
2018-05-27T07:45:05.986Z,59.80
2018-05-27T07:47:34.265Z,59.50
2018-05-27T07:50:02.545Z,59.10
2018-05-27T07:52:30.844Z,56.70
2018-05-27T07:54:58.333Z,56.50
2018-05-27T07:57:25.770Z,55.70
2018-05-27T07:59:53.267Z,55.40
2018-05-27T08:02:20.765Z,57.00
2018-05-27T08:04:49.010Z,54.70
2018-05-27T08:07:16.522Z,54.70
2018-05-27T08:09:44.002Z,57.70
2018-05-27T08:12:11.497Z,55.90
2018-05-27T08:14:38.998Z,55.70
2018-05-27T08:17:06.499Z,53.50
2018-05-27T08:19:34.018Z,54.00
2018-05-27T08:22:01.505Z,53.90
2018-05-27T08:24:29.010Z,52.80
2018-05-27T08:26:57.269Z,55.20
2018-05-27T08:29:24.785Z,55.20
2018-05-27T08:31:52.782Z,53.10
2018-05-27T08:34:20.300Z,53.50
2018-05-27T08:36:47.789Z,53.80
2018-05-27T08:39:15.267Z,53.10
2018-05-27T08:41:42.768Z,51.30
2018-05-27T08:44:10.253Z,52.60
2018-05-27T08:46:37.842Z,53.20
2018-05-27T08:49:05.357Z,51.80
2018-05-27T08:51:33.206Z,52.10
2018-05-27T08:54:00.713Z,50.80
2018-05-27T08:56:28.273Z,51.80
2018-05-27T08:58:55.763Z,52.60
2018-05-27T09:01:23.251Z,52.50
2018-05-27T09:03:50.770Z,52.40
2018-05-27T09:06:19.009Z,50.90
2018-05-27T09:08:46.502Z,50.90
2018-05-27T09:11:14.751Z,50.80
2018-05-27T09:13:42.266Z,50.70
2018-05-27T09:16:10.509Z,49.10
2018-05-27T09:18:38.793Z,47.90
2018-05-27T09:21:07.792Z,46.80
2018-05-27T09:23:35.251Z,46.70
2018-05-27T09:26:02.740Z,47.30
2018-05-27T09:28:30.206Z,46.30
2018-05-27T09:30:57.757Z,48.20
2018-05-27T09:33:25.197Z,46.90
2018-05-27T09:35:53.445Z,48.50
2018-05-27T09:38:20.946Z,48.50
2018-05-27T09:40:49.178Z,47.70
2018-05-27T09:43:17.450Z,48.60
2018-05-27T09:45:44.936Z,48.70
2018-05-27T09:48:12.439Z,47.40
2018-05-27T09:50:39.925Z,48.30
2018-05-27T09:53:07.444Z,49.10
2018-05-27T09:55:34.982Z,48.70
2018-05-27T09:58:03.273Z,48.40
2018-05-27T10:00:31.492Z,48.00
2018-05-27T10:02:58.978Z,47.90
2018-05-27T10:05:26.486Z,49.00
2018-05-27T10:07:54.001Z,46.70
2018-05-27T10:10:22.252Z,47.10
2018-05-27T10:12:49.794Z,47.10
2018-05-27T10:15:17.258Z,47.30
2018-05-27T10:17:44.725Z,48.00
2018-05-27T10:20:12.246Z,46.20
2018-05-27T10:22:39.702Z,46.70
2018-05-27T10:25:07.202Z,45.50
2018-05-27T10:27:34.704Z,45.20
2018-05-27T10:30:03.007Z,46.60
2018-05-27T10:32:30.479Z,46.60
2018-05-27T10:34:57.953Z,46.00
2018-05-27T10:37:25.450Z,45.60
2018-05-27T10:39:53.701Z,46.20
2018-05-27T10:42:21.206Z,46.20
2018-05-27T10:44:48.685Z,46.70
2018-05-27T10:47:16.197Z,48.80
2018-05-27T10:49:43.669Z,47.60
2018-05-27T10:52:11.246Z,45.20
2018-05-27T10:54:38.678Z,45.80
2018-05-27T10:57:06.953Z,47.00
2018-05-27T10:59:35.214Z,46.50
2018-05-27T11:02:02.701Z,46.30
2018-05-27T11:04:31.008Z,45.50
2018-05-27T11:06:58.479Z,45.50
2018-05-27T11:09:25.981Z,46.30
2018-05-27T11:11:54.247Z,47.20
2018-05-27T11:14:21.741Z,47.20
2018-05-27T11:16:49.282Z,46.40
2018-05-27T11:19:16.755Z,47.80
2018-05-27T11:21:45.010Z,45.70
2018-05-27T11:24:13.270Z,48.60
2018-05-27T11:26:40.745Z,48.50
2018-05-27T11:29:09.026Z,47.70
2018-05-27T11:31:37.278Z,46.90
2018-05-27T11:34:04.778Z,46.90
2018-05-27T11:36:33.040Z,45.70
2018-05-27T11:39:01.275Z,45.20
2018-05-27T11:41:28.789Z,45.20
2018-05-27T11:43:57.030Z,47.90
2018-05-27T11:46:24.542Z,47.80
2018-05-27T11:48:52.031Z,46.60
2018-05-27T11:51:19.501Z,46.30
2018-05-27T11:53:46.994Z,46.40
2018-05-27T11:56:15.257Z,45.50
2018-05-27T11:58:43.528Z,47.10
2018-05-27T12:01:11.041Z,47.10
2018-05-27T12:03:38.538Z,48.80
2018-05-27T12:06:06.058Z,47.80
2018-05-27T12:08:33.534Z,46.60
2018-05-27T12:11:01.018Z,48.40
2018-05-27T12:13:28.515Z,47.70
2018-05-27T12:15:56.025Z,46.70
2018-05-27T12:18:23.532Z,46.10
2018-05-27T12:20:51.051Z,47.00
2018-05-27T12:23:18.542Z,48.30
2018-05-27T12:25:46.046Z,47.40
2018-05-27T12:28:13.561Z,47.20
2018-05-27T12:30:41.805Z,46.30
2018-05-27T12:33:09.297Z,46.20
2018-05-27T12:35:37.525Z,47.10
2018-05-27T12:38:05.612Z,47.20
2018-05-27T12:40:33.098Z,46.50
2018-05-27T12:43:00.602Z,45.90
2018-05-27T12:45:28.116Z,45.60
2018-05-27T12:47:56.370Z,45.70
2018-05-27T12:50:23.868Z,45.70
2018-05-27T12:52:51.361Z,47.20
2018-05-27T12:55:18.830Z,47.10
2018-05-27T12:57:48.394Z,47.00
2018-05-27T13:00:15.915Z,47.00
2018-05-27T13:02:43.381Z,47.10
2018-05-27T13:05:11.646Z,46.90
2018-05-27T13:07:39.118Z,46.90
2018-05-27T13:10:07.402Z,45.50
2018-05-27T13:12:35.671Z,46.20
2018-05-27T13:15:03.952Z,46.40
2018-05-27T13:17:32.214Z,46.70
2018-05-27T13:19:59.705Z,46.60
2018-05-27T13:22:27.182Z,46.20
2018-05-27T13:24:54.677Z,45.80
2018-05-27T13:27:22.154Z,45.40
2018-05-27T13:29:50.425Z,45.10
2018-05-27T13:32:17.901Z,45.10
2018-05-27T13:34:46.190Z,45.70
2018-05-27T13:37:13.650Z,45.70
2018-05-27T13:39:41.125Z,46.30
2018-05-27T13:42:08.648Z,45.80
2018-05-27T13:44:36.877Z,45.40
2018-05-27T13:47:04.369Z,45.40
2018-05-27T13:49:31.857Z,46.30
2018-05-27T13:51:59.377Z,46.00
2018-05-27T13:54:28.366Z,45.40
2018-05-27T13:56:56.601Z,45.40
2018-05-27T13:59:24.078Z,44.30
2018-05-27T14:01:51.556Z,44.20
2018-05-27T14:04:20.530Z,44.10
2018-05-27T14:06:48.055Z,44.10
2018-05-27T14:09:15.545Z,44.70
2018-05-27T14:11:43.046Z,44.10
2018-05-27T14:14:10.510Z,43.70
2018-05-27T14:16:38.785Z,43.50
2018-05-27T14:19:06.283Z,43.50
2018-05-27T14:21:33.770Z,43.90
2018-05-27T14:24:01.262Z,43.80
2018-05-27T14:26:29.552Z,43.50
2018-05-27T14:28:57.815Z,44.10
2018-05-27T14:31:26.060Z,44.40
2018-05-27T14:33:53.561Z,44.20
2018-05-27T14:36:21.777Z,45.40
2018-05-27T14:38:49.320Z,45.40
2018-05-27T14:41:16.761Z,45.20
2018-05-27T14:43:44.291Z,44.40
2018-05-27T14:46:11.758Z,43.90
2018-05-27T14:48:39.996Z,43.60
2018-05-27T14:51:07.502Z,43.40
2018-05-27T14:53:35.776Z,46.80
2018-05-27T14:56:04.021Z,47.20
2018-05-27T14:58:31.563Z,47.20
2018-05-27T15:00:59.063Z,48.40
2018-05-27T15:03:27.301Z,52.40
2018-05-27T15:05:54.798Z,52.20
2018-05-27T15:08:23.076Z,52.00
2018-05-27T15:10:51.329Z,52.10
2018-05-27T15:13:18.802Z,52.10
2018-05-27T15:15:47.059Z,54.00
2018-05-27T15:18:14.522Z,54.10
2018-05-27T15:20:42.032Z,53.70
2018-05-27T15:23:09.527Z,54.80
2018-05-27T15:25:37.026Z,54.50
2018-05-27T15:28:05.325Z,54.40
2018-05-27T15:30:32.894Z,54.40
2018-05-27T15:33:01.124Z,53.40
2018-05-27T15:35:28.620Z,53.50
2018-05-27T15:37:56.123Z,52.60
2018-05-27T15:40:23.620Z,52.30
2018-05-27T15:42:51.886Z,54.00
2018-05-27T15:45:19.361Z,54.00
2018-05-27T15:47:47.617Z,52.70
2018-05-27T15:50:16.637Z,52.30
2018-05-27T15:52:44.916Z,49.70
2018-05-27T15:55:13.157Z,49.70
2018-05-27T15:57:40.660Z,49.70
2018-05-27T16:00:08.153Z,49.10
2018-05-27T16:02:35.622Z,49.90
2018-05-27T16:05:03.126Z,49.80
2018-05-27T16:07:31.396Z,50.00
2018-05-27T16:09:59.639Z,49.00
2018-05-27T16:12:27.157Z,49.00
2018-05-27T16:14:54.633Z,49.00
2018-05-27T16:17:22.126Z,48.50
2018-05-27T16:19:49.606Z,49.20
2018-05-27T16:22:17.858Z,48.70
2018-05-27T16:24:45.341Z,48.70
2018-05-27T16:27:13.621Z,47.70
2018-05-27T16:29:41.867Z,48.00
2018-05-27T16:32:09.364Z,48.00
2018-05-27T16:34:36.844Z,49.40
2018-05-27T16:37:04.349Z,47.60
2018-05-27T16:39:31.875Z,48.30
2018-05-27T16:41:59.380Z,48.10
2018-05-27T16:44:27.659Z,47.20
2018-05-27T16:46:55.958Z,46.20
2018-05-27T16:49:23.435Z,46.20
2018-05-27T16:51:50.918Z,46.20
2018-05-27T16:54:18.417Z,46.50
2018-05-27T16:56:46.654Z,46.40
2018-05-27T16:59:14.133Z,46.40
2018-05-27T17:01:42.365Z,46.10
2018-05-27T17:04:09.881Z,46.20
2018-05-27T17:06:38.123Z,46.60
2018-05-27T17:09:05.621Z,46.50
2018-05-27T17:11:33.860Z,47.00
2018-05-27T17:14:01.361Z,47.00
2018-05-27T17:16:29.622Z,47.10
2018-05-27T17:18:57.106Z,46.90
2018-05-27T17:21:24.602Z,46.40
2018-05-27T17:23:52.089Z,46.20
2018-05-27T17:26:19.602Z,46.50
2018-05-27T17:28:47.073Z,46.80
2018-05-27T17:31:14.598Z,46.90
2018-05-27T17:33:42.863Z,46.40
2018-05-27T17:36:11.138Z,46.00
2018-05-27T17:38:39.382Z,46.20
2018-05-27T17:41:06.899Z,46.20
2018-05-27T17:43:34.387Z,46.50
2018-05-27T17:46:01.898Z,45.90
2018-05-27T17:48:30.158Z,45.40
2018-05-27T17:50:57.637Z,45.40
2018-05-27T17:53:25.914Z,45.40
2018-05-27T17:55:54.175Z,45.40
2018-05-27T17:58:22.433Z,45.90
2018-05-27T18:00:49.915Z,45.70
2018-05-27T18:03:18.170Z,46.40
2018-05-27T18:05:45.683Z,46.20
2018-05-27T18:08:13.180Z,45.90
2018-05-27T18:10:40.670Z,46.20
2018-05-27T18:13:08.958Z,45.80
2018-05-27T18:15:37.229Z,45.80
2018-05-27T18:18:05.556Z,46.30
2018-05-27T18:20:33.745Z,46.20
2018-05-27T18:23:01.237Z,46.00
2018-05-27T18:25:29.508Z,47.10
2018-05-27T18:27:57.763Z,46.90
2018-05-27T18:30:25.257Z,46.90
2018-05-27T18:32:53.502Z,47.00
2018-05-27T18:35:22.510Z,46.60
2018-05-27T18:37:49.994Z,46.60
2018-05-27T18:40:17.518Z,46.90
2018-05-27T18:42:46.494Z,45.90
2018-05-27T18:45:14.023Z,45.90
2018-05-27T18:47:41.521Z,45.70
2018-05-27T18:50:09.053Z,45.60
2018-05-27T18:52:36.525Z,45.70
2018-05-27T18:55:04.029Z,45.80
2018-05-27T18:57:32.282Z,46.70
2018-05-27T18:59:59.794Z,46.70
2018-05-27T19:02:27.302Z,46.80
2018-05-27T19:04:54.774Z,47.40
2018-05-27T19:07:23.052Z,47.90
2018-05-27T19:09:51.294Z,48.30
2018-05-27T19:12:18.790Z,48.30
2018-05-27T19:14:47.038Z,49.90
2018-05-27T19:17:14.563Z,49.70
2018-05-27T19:19:42.783Z,49.20
2018-05-27T19:22:10.289Z,49.00
2018-05-27T19:24:37.782Z,50.00
2018-05-27T19:27:05.272Z,50.90
2018-05-27T19:29:33.510Z,51.40
2018-05-27T19:32:01.096Z,51.40
2018-05-27T19:34:28.573Z,50.90
2018-05-27T19:36:56.825Z,52.20
2018-05-27T19:39:24.325Z,52.20
2018-05-27T19:41:51.810Z,52.80
2018-05-27T19:44:19.342Z,53.20
2018-05-27T19:46:47.596Z,54.20
2018-05-27T19:49:15.915Z,54.30
2018-05-27T19:51:44.146Z,54.40
2018-05-27T19:54:11.640Z,54.30
2018-05-27T19:56:39.140Z,55.50
2018-05-27T19:59:06.643Z,55.80
2018-05-27T20:01:34.898Z,55.50
2018-05-27T20:04:03.174Z,56.20
2018-05-27T20:06:30.647Z,56.00
2018-05-27T20:08:58.906Z,57.00
2018-05-27T20:11:26.394Z,56.80
2018-05-27T20:13:53.881Z,57.40
2018-05-27T20:16:21.429Z,56.80
2018-05-27T20:18:48.920Z,57.60
2018-05-27T20:21:16.435Z,59.10
2018-05-27T20:23:43.906Z,60.00
2018-05-27T20:26:11.399Z,59.80
2018-05-27T20:28:38.926Z,60.10
2018-05-27T20:31:06.427Z,60.10
2018-05-27T20:33:33.941Z,60.00
2018-05-27T20:36:01.431Z,60.10
2018-05-27T20:38:28.970Z,59.20
2018-05-27T20:40:56.434Z,60.00
2018-05-27T20:43:23.934Z,60.00
2018-05-27T20:45:51.434Z,60.10
2018-05-27T20:48:18.943Z,60.40
2018-05-27T20:50:46.433Z,60.50
2018-05-27T20:53:14.693Z,60.40
2018-05-27T20:55:42.929Z,60.70
2018-05-27T20:58:10.427Z,60.80
2018-05-27T21:00:37.926Z,60.70
2018-05-27T21:03:05.498Z,60.70
2018-05-27T21:05:32.982Z,61.00
2018-05-27T21:08:00.441Z,61.40
2018-05-27T21:10:27.956Z,61.30
2018-05-27T21:12:55.417Z,61.20
2018-05-27T21:15:22.935Z,61.00
2018-05-27T21:17:50.447Z,61.00
2018-05-27T21:20:17.915Z,61.10
2018-05-27T21:22:45.397Z,61.30
2018-05-27T21:25:12.897Z,61.10
2018-05-27T21:27:40.385Z,61.40
2018-05-27T21:30:07.998Z,61.50
2018-05-27T21:32:36.245Z,62.10
2018-05-27T21:35:04.462Z,62.10
2018-05-27T21:37:32.687Z,62.00
2018-05-27T21:40:00.181Z,62.00
2018-05-27T21:42:28.458Z,62.10
2018-05-27T21:44:55.938Z,62.10
2018-05-27T21:47:24.226Z,62.20
2018-05-27T21:49:51.709Z,62.20
2018-05-27T21:52:19.191Z,62.20
2018-05-27T21:54:46.669Z,62.60
2018-05-27T21:57:14.922Z,62.70
2018-05-27T21:59:42.389Z,62.60
2018-05-27T22:02:09.884Z,62.90
2018-05-27T22:04:37.374Z,62.80
2018-05-27T22:07:04.886Z,62.80
2018-05-27T22:09:33.137Z,62.60
2018-05-27T22:12:01.373Z,62.70
2018-05-27T22:14:28.857Z,62.70
2018-05-27T22:16:56.333Z,62.90
2018-05-27T22:19:24.588Z,63.00
2018-05-27T22:21:52.077Z,62.90
2018-05-27T22:24:19.585Z,63.10
2018-05-27T22:26:47.050Z,63.60
2018-05-27T22:29:14.569Z,63.20
2018-05-27T22:31:42.807Z,63.40
2018-05-27T22:34:10.298Z,63.40
2018-05-27T22:36:38.556Z,63.80
2018-05-27T22:39:06.807Z,63.70
2018-05-27T22:41:34.284Z,63.70
2018-05-27T22:44:02.549Z,63.50
2018-05-27T22:46:30.017Z,63.40
2018-05-27T22:48:57.537Z,63.70
2018-05-27T22:51:25.013Z,63.70
2018-05-27T22:53:52.548Z,63.90
2018-05-27T22:56:20.012Z,64.10
2018-05-27T22:58:47.478Z,64.00
2018-05-27T23:01:15.029Z,64.40
2018-05-27T23:03:43.233Z,64.60
2018-05-27T23:06:10.733Z,64.60
2018-05-27T23:08:38.985Z,64.30
2018-05-27T23:11:06.485Z,64.20
2018-05-27T23:13:33.958Z,64.30
2018-05-27T23:16:01.458Z,64.40
2018-05-27T23:18:29.696Z,64.30
2018-05-27T23:20:57.201Z,64.30
2018-05-27T23:23:24.677Z,64.60
2018-05-27T23:25:52.958Z,64.40
2018-05-27T23:28:21.185Z,64.90
2018-05-27T23:30:48.687Z,64.80
2018-05-27T23:33:16.928Z,64.70
2018-05-27T23:35:44.413Z,64.70
2018-05-27T23:38:11.917Z,64.60
2018-05-27T23:40:39.385Z,65.00
2018-05-27T23:43:06.871Z,65.30
2018-05-27T23:45:34.364Z,65.60
2018-05-27T23:48:02.637Z,65.60
2018-05-27T23:50:30.863Z,65.60
2018-05-27T23:52:58.362Z,65.50
2018-05-27T23:55:26.585Z,65.60
2018-05-27T23:57:54.097Z,65.50
